createdAt,value
2022-08-18T00:01:36.772Z,16.70
2022-08-18T00:04:12.436Z,16.70
2022-08-18T00:06:53.610Z,16.70
2022-08-18T00:09:20.770Z,16.70
2022-08-18T00:11:47.897Z,16.70
2022-08-18T00:14:21.447Z,16.90
2022-08-18T00:16:52.789Z,17.20
2022-08-18T00:19:20.845Z,17.40
2022-08-18T00:22:08.114Z,17.60
2022-08-18T00:24:35.410Z,17.80
2022-08-18T00:27:05.912Z,17.90
2022-08-18T00:29:34.684Z,18.00
2022-08-18T00:32:13.074Z,18.10
2022-08-18T00:34:40.224Z,18.10
2022-08-18T00:37:07.753Z,18.20
2022-08-18T00:39:37.169Z,18.30
2022-08-18T00:42:29.920Z,18.40
2022-08-18T00:45:03.858Z,18.60
2022-08-18T00:47:32.868Z,18.70
2022-08-18T00:50:18.453Z,18.70
2022-08-18T00:52:59.034Z,18.60
2022-08-18T00:55:29.563Z,18.60
2022-08-18T00:58:03.729Z,18.60
2022-08-18T01:00:30.988Z,18.60
2022-08-18T01:03:01.483Z,18.70
2022-08-18T01:05:41.073Z,18.80
2022-08-18T01:08:12.110Z,18.70
2022-08-18T01:10:40.672Z,18.80
2022-08-18T01:13:08.249Z,18.80
2022-08-18T01:15:35.951Z,18.80
2022-08-18T01:18:28.949Z,18.70
2022-08-18T01:21:24.353Z,18.60
2022-08-18T01:23:53.815Z,18.60
2022-08-18T01:26:22.804Z,18.70
2022-08-18T01:28:50.670Z,18.70
2022-08-18T01:31:39.889Z,18.60
2022-08-18T01:34:24.853Z,18.70
2022-08-18T01:36:54.403Z,18.70
2022-08-18T01:40:59.736Z,18.70
2022-08-18T01:42:10.989Z,18.60
2022-08-18T01:44:41.705Z,18.50
2022-08-18T01:47:10.902Z,18.50
2022-08-18T01:49:42.033Z,18.50
2022-08-18T01:52:21.367Z,18.60
2022-08-18T01:54:52.384Z,18.50
2022-08-18T01:57:22.838Z,18.20
2022-08-18T01:59:50.608Z,17.80
2022-08-18T02:02:24.783Z,17.40
2022-08-18T02:04:59.529Z,16.90
2022-08-18T02:07:36.254Z,16.40
2022-08-18T02:10:12.026Z,16.10
2022-08-18T02:12:41.551Z,16.00
2022-08-18T02:15:09.354Z,15.90
2022-08-18T02:17:44.746Z,15.90
2022-08-18T02:20:14.888Z,15.90
2022-08-18T02:22:42.989Z,16.00
2022-08-18T02:25:11.709Z,16.00
2022-08-18T02:27:38.970Z,15.90
2022-08-18T02:30:09.789Z,15.80
2022-08-18T02:32:37.124Z,15.80
2022-08-18T02:35:08.884Z,15.70
2022-08-18T02:37:47.963Z,15.70
2022-08-18T02:40:16.766Z,15.70
2022-08-18T02:42:46.288Z,15.70
2022-08-18T02:45:14.483Z,15.70
2022-08-18T02:47:49.185Z,15.80
2022-08-18T02:50:16.718Z,15.80
2022-08-18T02:52:43.869Z,16.10
2022-08-18T02:55:11.852Z,16.30
2022-08-18T02:57:43.708Z,16.50
2022-08-18T03:00:14.388Z,16.80
2022-08-18T03:02:45.501Z,16.90
2022-08-18T03:05:14.878Z,17.10
2022-08-18T03:07:42.341Z,17.20
2022-08-18T03:10:31.450Z,17.30
2022-08-18T03:12:57.413Z,17.40
2022-08-18T03:15:24.563Z,17.50
2022-08-18T03:17:53.825Z,17.60
2022-08-18T03:20:29.932Z,17.70
2022-08-18T03:22:58.595Z,17.80
2022-08-18T03:25:25.632Z,17.80
2022-08-18T03:27:52.877Z,17.80
2022-08-18T03:30:20.058Z,17.70
2022-08-18T03:32:47.576Z,17.70
2022-08-18T03:35:14.861Z,17.70
2022-08-18T03:37:42.023Z,17.70
2022-08-18T03:40:11.212Z,17.60
2022-08-18T03:42:38.455Z,17.70
2022-08-18T03:45:13.097Z,17.70
2022-08-18T03:47:46.035Z,17.70
2022-08-18T03:50:14.091Z,17.70
2022-08-18T03:52:41.950Z,17.70
2022-08-18T03:55:09.594Z,17.70
2022-08-18T03:57:39.135Z,17.70
2022-08-18T04:00:09.739Z,17.80
2022-08-18T04:02:36.873Z,17.90
2022-08-18T04:05:05.210Z,17.90
2022-08-18T04:07:32.554Z,18.00
2022-08-18T04:09:59.615Z,18.10
2022-08-18T04:12:26.707Z,18.10
2022-08-18T04:14:53.823Z,18.00
2022-08-18T04:17:25.414Z,18.20
2022-08-18T04:19:56.856Z,18.10
2022-08-18T04:22:25.189Z,18.10
2022-08-18T04:24:53.316Z,18.00
2022-08-18T04:27:21.985Z,18.00
2022-08-18T04:29:49.977Z,18.00
2022-08-18T04:32:17.166Z,18.00
2022-08-18T04:34:44.630Z,18.00
2022-08-18T04:37:14.031Z,18.00
2022-08-18T04:39:41.611Z,18.00
2022-08-18T04:42:08.704Z,18.00
2022-08-18T04:44:38.048Z,17.90
2022-08-18T04:47:07.877Z,17.90
2022-08-18T04:49:36.439Z,17.90
2022-08-18T04:52:40.835Z,17.90
2022-08-18T04:55:10.167Z,17.90
2022-08-18T04:57:37.747Z,17.80
2022-08-18T05:00:06.711Z,17.70
2022-08-18T05:02:33.712Z,17.70
2022-08-18T05:05:03.198Z,17.60
2022-08-18T05:07:30.547Z,17.60
2022-08-18T05:09:57.694Z,17.60
2022-08-18T05:12:26.400Z,17.70
2022-08-18T05:14:57.423Z,17.70
2022-08-18T05:17:29.993Z,17.70
2022-08-18T05:20:01.403Z,17.80
2022-08-18T05:22:31.081Z,17.80
2022-08-18T05:24:58.923Z,17.80
2022-08-18T05:27:25.979Z,17.90
2022-08-18T05:29:53.049Z,18.00
2022-08-18T05:32:41.099Z,18.00
2022-08-18T05:35:22.071Z,17.90
2022-08-18T05:38:14.030Z,17.80
2022-08-18T05:40:41.982Z,17.60
2022-08-18T05:43:10.329Z,17.60
2022-08-18T05:45:39.591Z,17.50
2022-08-18T05:48:06.685Z,17.60
2022-08-18T05:50:37.637Z,17.60
2022-08-18T05:53:17.022Z,17.60
2022-08-18T05:56:20.576Z,17.70
2022-08-18T05:58:55.436Z,17.80
2022-08-18T06:01:35.192Z,17.90
2022-08-18T06:04:09.348Z,18.00
2022-08-18T06:06:37.720Z,18.00
2022-08-18T06:09:43.576Z,18.00
2022-08-18T06:12:33.695Z,17.90
2022-08-18T06:15:26.539Z,17.70
2022-08-18T06:18:25.527Z,17.30
2022-08-18T06:21:17.281Z,17.20
2022-08-18T06:23:53.321Z,17.20
2022-08-18T06:26:43.479Z,17.30
2022-08-18T06:29:25.552Z,17.30
2022-08-18T06:32:02.392Z,17.40
2022-08-18T06:35:01.520Z,17.50
2022-08-18T06:37:59.648Z,17.60
2022-08-18T06:40:27.263Z,17.70
2022-08-18T06:42:56.758Z,17.90
2022-08-18T06:45:36.448Z,17.70
2022-08-18T06:48:16.792Z,17.60
2022-08-18T06:50:57.742Z,17.50
2022-08-18T06:53:52.892Z,17.20
2022-08-18T06:56:28.742Z,17.10
2022-08-18T06:59:17.245Z,16.90
2022-08-18T07:01:46.122Z,16.80
2022-08-18T07:04:38.662Z,16.90
2022-08-18T07:07:19.873Z,17.00
2022-08-18T07:09:48.852Z,17.10
2022-08-18T07:12:22.926Z,17.10
2022-08-18T07:15:02.411Z,17.10
2022-08-18T07:17:42.324Z,17.20
2022-08-18T07:20:24.435Z,17.30
2022-08-18T07:23:02.571Z,17.40
2022-08-18T07:25:45.391Z,17.60
2022-08-18T07:28:39.562Z,17.80
2022-08-18T07:31:16.999Z,17.90
2022-08-18T07:33:51.612Z,18.10
2022-08-18T07:36:22.117Z,18.10
2022-08-18T07:38:54.803Z,18.10
2022-08-18T07:41:38.306Z,18.10
2022-08-18T07:44:17.439Z,18.10
2022-08-18T07:47:12.767Z,18.20
2022-08-18T07:50:13.570Z,18.30
2022-08-18T07:52:47.259Z,18.40
2022-08-18T07:55:35.654Z,18.50
2022-08-18T07:58:34.618Z,18.60
2022-08-18T08:01:21.962Z,18.70
2022-08-18T08:04:03.778Z,18.70
2022-08-18T08:07:06.234Z,18.70
2022-08-18T08:09:54.058Z,18.70
2022-08-18T08:12:45.813Z,18.80
2022-08-18T08:15:26.652Z,18.80
2022-08-18T08:18:35.962Z,18.80
2022-08-18T08:21:17.941Z,18.80
2022-08-18T08:24:03.704Z,18.80
2022-08-18T08:26:45.149Z,18.80
2022-08-18T08:29:37.153Z,18.90
2022-08-18T08:32:11.832Z,19.00
2022-08-18T08:34:41.785Z,19.10
2022-08-18T08:37:27.896Z,19.20
2022-08-18T08:40:00.726Z,19.30
2022-08-18T08:42:40.555Z,19.30
2022-08-18T08:45:16.369Z,19.40
2022-08-18T08:48:26.528Z,19.50
2022-08-18T08:51:19.333Z,19.40
2022-08-18T08:53:53.347Z,19.00
2022-08-18T08:56:34.536Z,18.80
2022-08-18T08:59:09.201Z,18.50
2022-08-18T09:02:15.961Z,18.20
2022-08-18T09:05:09.634Z,18.00
2022-08-18T09:07:39.863Z,18.00
2022-08-18T09:10:30.887Z,18.10
2022-08-18T09:13:29.288Z,18.30
2022-08-18T09:16:02.562Z,18.50
2022-08-18T09:19:02.183Z,18.80
2022-08-18T09:21:32.031Z,19.00
2022-08-18T09:24:19.918Z,19.20
2022-08-18T09:26:53.023Z,19.30
2022-08-18T09:29:45.840Z,19.40
2022-08-18T09:35:27.353Z,19.70
2022-08-18T09:38:29.273Z,19.80
2022-08-18T09:41:34.293Z,20.00
2022-08-18T09:44:17.877Z,20.00
2022-08-18T09:46:56.112Z,20.00
2022-08-18T09:49:26.473Z,20.10
2022-08-18T09:52:02.338Z,20.20
2022-08-18T09:54:33.949Z,20.30
2022-08-18T09:57:03.915Z,20.30
2022-08-18T09:59:32.385Z,20.40
2022-08-18T10:02:20.040Z,20.50
2022-08-18T10:04:53.974Z,20.60
2022-08-18T10:07:35.350Z,20.70
2022-08-18T10:10:59.290Z,20.70
2022-08-18T10:13:24.749Z,20.70
2022-08-18T10:16:10.756Z,20.30
2022-08-18T10:18:43.022Z,19.60
2022-08-18T10:21:22.744Z,19.20
2022-08-18T10:24:32.102Z,18.90
2022-08-18T10:29:49.159Z,18.40
2022-08-18T10:32:16.241Z,18.20
2022-08-18T10:34:53.267Z,18.10
2022-08-18T10:37:38.795Z,18.00
2022-08-18T10:40:14.660Z,17.90
2022-08-18T10:46:25.268Z,18.00
2022-08-18T10:49:07.133Z,18.10
2022-08-18T10:52:00.100Z,18.20
2022-08-18T10:54:52.021Z,18.30
2022-08-18T10:57:41.230Z,18.30
2022-08-18T11:00:15.580Z,18.20
2022-08-18T11:03:02.602Z,18.20
2022-08-18T11:05:36.088Z,18.00
2022-08-18T11:08:15.834Z,17.90
